createdAt,value
2018-11-02T00:00:23.170Z,7.74
2018-11-02T00:01:22.851Z,7.71
2018-11-02T00:02:23.097Z,7.68
2018-11-02T00:03:23.081Z,7.8
2018-11-02T00:04:23.376Z,7.67
2018-11-02T00:05:22.805Z,7.71
2018-11-02T00:06:23.093Z,7.71
2018-11-02T00:07:22.766Z,7.71
2018-11-02T00:08:23.021Z,7.71
2018-11-02T00:09:23.021Z,7.74
2018-11-02T00:10:22.772Z,7.8
2018-11-02T00:11:22.998Z,7.8
2018-11-02T00:12:23.477Z,7.77
2018-11-02T00:13:22.970Z,7.8
2018-11-02T00:14:23.478Z,7.75
2018-11-02T00:15:22.945Z,7.82
2018-11-02T00:16:22.919Z,7.75
2018-11-02T00:17:22.664Z,7.82
2018-11-02T00:18:22.910Z,7.85
2018-11-02T00:19:22.945Z,7.8
2018-11-02T00:20:22.889Z,7.75
2018-11-02T00:21:22.863Z,7.82
2018-11-02T00:22:22.881Z,7.83
2018-11-02T00:23:22.848Z,7.8
2018-11-02T00:24:23.125Z,7.85
2018-11-02T00:25:22.813Z,7.83
2018-11-02T00:26:22.824Z,7.89
2018-11-02T00:27:22.524Z,7.77
2018-11-02T00:28:22.819Z,7.79
2018-11-02T00:29:22.501Z,7.83
2018-11-02T00:30:22.771Z,7.8
2018-11-02T00:31:22.790Z,7.85
2018-11-02T00:32:22.723Z,7.75
2018-11-02T00:33:22.484Z,7.75
2018-11-02T00:34:22.912Z,7.69
2018-11-02T00:35:22.713Z,7.72
2018-11-02T00:36:22.421Z,7.8
2018-11-02T00:37:22.665Z,7.69
2018-11-02T00:38:22.688Z,7.72
2018-11-02T00:39:22.701Z,7.75
2018-11-02T00:40:22.412Z,7.69
2018-11-02T00:41:22.625Z,7.69
2018-11-02T00:42:22.640Z,7.67
2018-11-02T00:43:22.604Z,7.72
2018-11-02T00:44:22.622Z,7.72
2018-11-02T00:45:22.541Z,7.67
2018-11-02T00:46:22.624Z,7.61
2018-11-02T00:47:22.563Z,7.55
2018-11-02T00:48:22.574Z,7.64
2018-11-02T00:49:22.531Z,7.57
2018-11-02T00:50:22.271Z,7.57
2018-11-02T00:51:22.266Z,7.63
2018-11-02T00:52:22.526Z,7.49
2018-11-02T00:53:22.515Z,7.52
2018-11-02T00:54:22.474Z,7.61
2018-11-02T00:55:23.009Z,7.67
2018-11-02T00:56:22.487Z,7.61
2018-11-02T00:57:22.454Z,7.49
2018-11-02T00:58:22.189Z,7.55
2018-11-02T00:59:22.472Z,7.49
2018-11-02T01:00:22.175Z,7.48
2018-11-02T01:01:22.136Z,7.55
2018-11-02T01:02:22.143Z,7.48
2018-11-02T01:03:22.125Z,7.43
2018-11-02T01:04:22.128Z,7.43
2018-11-02T01:05:22.610Z,7.42
2018-11-02T01:06:22.341Z,7.49
2018-11-02T01:07:22.080Z,7.45
2018-11-02T01:08:22.342Z,7.37
2018-11-02T01:09:22.323Z,7.4
2018-11-02T01:10:22.286Z,7.48
2018-11-02T01:11:22.056Z,7.58
2018-11-02T01:12:22.000Z,7.45
2018-11-02T01:13:22.276Z,7.63
2018-11-02T01:14:21.726Z,7.6
2018-11-02T01:15:22.667Z,7.67
2018-11-02T01:16:21.970Z,7.68
2018-11-02T01:17:21.974Z,7.68
2018-11-02T01:18:22.187Z,7.79
2018-11-02T01:19:21.940Z,7.85
2018-11-02T01:20:21.913Z,7.89
2018-11-02T01:21:22.185Z,7.89
2018-11-02T01:22:22.151Z,7.98
2018-11-02T01:23:22.141Z,7.98
2018-11-02T01:24:22.153Z,8.1
2018-11-02T01:25:22.401Z,8
2018-11-02T01:26:22.146Z,8.02
2018-11-02T01:27:22.101Z,8.11
2018-11-02T01:28:22.088Z,8.22
2018-11-02T01:29:21.835Z,8.23
2018-11-02T01:30:22.051Z,8.29
2018-11-02T01:31:22.064Z,8.28
2018-11-02T01:32:22.058Z,8.33
2018-11-02T01:33:21.788Z,8.34
2018-11-02T01:34:21.753Z,8.33
2018-11-02T01:35:21.839Z,8.3
2018-11-02T01:36:22.301Z,8.33
2018-11-02T01:37:21.973Z,8.25
2018-11-02T01:38:21.967Z,8.36
2018-11-02T01:39:21.736Z,8.23
2018-11-02T01:40:21.711Z,8.23
2018-11-02T01:41:21.970Z,8.1
2018-11-02T01:42:21.920Z,8.15
2018-11-02T01:43:21.913Z,8.15
2018-11-02T01:44:21.667Z,8.02
2018-11-02T01:45:21.649Z,8.04
2018-11-02T01:46:21.924Z,8.07
2018-11-02T01:47:21.875Z,7.97
2018-11-02T01:48:21.879Z,7.86
2018-11-02T01:49:21.837Z,7.92
2018-11-02T01:50:21.604Z,7.83
2018-11-02T01:51:21.827Z,7.82
2018-11-02T01:52:21.579Z,7.83
2018-11-02T01:53:21.798Z,7.75
2018-11-02T01:54:21.790Z,7.71
2018-11-02T01:55:21.788Z,7.71
2018-11-02T01:56:22.309Z,7.55
2018-11-02T01:57:21.795Z,7.57
2018-11-02T01:58:21.791Z,7.58
2018-11-02T01:59:21.477Z,7.67
2018-11-02T02:00:21.452Z,7.5
2018-11-02T02:01:21.723Z,7.48
2018-11-02T02:02:21.731Z,7.43
2018-11-02T02:03:21.185Z,7.4
2018-11-02T02:04:21.668Z,7.42
2018-11-02T02:05:21.722Z,7.42
2018-11-02T02:06:21.896Z,7.4
2018-11-02T02:07:21.679Z,7.27
2018-11-02T02:08:21.622Z,7.32
2018-11-02T02:09:21.640Z,7.32
2018-11-02T02:10:21.620Z,7.34
2018-11-02T02:11:21.602Z,7.3
2018-11-02T02:12:21.575Z,7.27
2018-11-02T02:13:22.325Z,7.3
2018-11-02T02:14:21.559Z,7.21
2018-11-02T02:15:21.293Z,7.21
2018-11-02T02:16:21.530Z,7.16
2018-11-02T02:17:21.291Z,7.15
2018-11-02T02:18:21.591Z,7.07
2018-11-02T02:19:21.261Z,7.03
2018-11-02T02:20:21.222Z,7.13
2018-11-02T02:21:21.503Z,7.07
2018-11-02T02:22:21.453Z,7.02
2018-11-02T02:23:21.196Z,7.03
2018-11-02T02:24:21.465Z,6.98
2018-11-02T02:25:21.448Z,6.98
2018-11-02T02:26:21.174Z,6.94
2018-11-02T02:27:21.889Z,6.98
2018-11-02T02:28:21.156Z,6.84
2018-11-02T02:29:21.366Z,6.87
2018-11-02T02:30:21.395Z,6.87
2018-11-02T02:31:21.362Z,6.84
2018-11-02T02:32:21.379Z,6.87
2018-11-02T02:33:21.328Z,6.85
2018-11-02T02:34:21.335Z,6.87
2018-11-02T02:35:21.305Z,6.76
2018-11-02T02:36:21.323Z,6.84
2018-11-02T02:37:21.823Z,6.84
2018-11-02T02:38:21.290Z,6.8
2018-11-02T02:39:21.009Z,6.81
2018-11-02T02:40:21.233Z,6.7
2018-11-02T02:41:21.261Z,6.73
2018-11-02T02:42:21.239Z,6.7
2018-11-02T02:43:21.224Z,6.73
2018-11-02T02:44:21.191Z,6.71
2018-11-02T02:45:21.188Z,6.71
2018-11-02T02:46:21.212Z,6.69
2018-11-02T02:47:21.456Z,6.66
2018-11-02T02:48:21.172Z,6.67
2018-11-02T02:49:20.617Z,6.69
2018-11-02T02:50:21.150Z,6.61
2018-11-02T02:51:21.113Z,6.66
2018-11-02T02:52:21.124Z,6.62
2018-11-02T02:53:20.819Z,6.66
2018-11-02T02:54:20.843Z,6.69
2018-11-02T02:55:21.073Z,6.56
2018-11-02T02:56:21.079Z,6.55
2018-11-02T02:57:21.349Z,6.55
2018-11-02T02:58:21.031Z,6.49
2018-11-02T02:59:20.769Z,6.51
2018-11-02T03:00:21.058Z,6.54
2018-11-02T03:01:21.011Z,6.44
2018-11-02T03:02:20.716Z,6.59
2018-11-02T03:03:20.982Z,6.51
2018-11-02T03:04:20.976Z,6.51
2018-11-02T03:05:20.952Z,6.55
2018-11-02T03:06:20.949Z,6.43
2018-11-02T03:07:21.107Z,6.54
2018-11-02T03:08:21.270Z,6.49
2018-11-02T03:09:20.626Z,6.49
2018-11-02T03:10:21.175Z,6.52
2018-11-02T03:11:20.810Z,6.51
2018-11-02T03:12:20.886Z,6.56
2018-11-02T03:13:20.878Z,6.59
2018-11-02T03:14:20.823Z,6.58
2018-11-02T03:15:20.825Z,6.56
2018-11-02T03:16:20.832Z,6.61
2018-11-02T03:17:20.559Z,6.66
2018-11-02T03:18:20.540Z,6.66
2018-11-02T03:19:20.795Z,6.64
2018-11-02T03:20:20.528Z,6.61
2018-11-02T03:21:20.786Z,6.74
2018-11-02T03:22:20.939Z,6.66
2018-11-02T03:23:20.714Z,6.67
2018-11-02T03:24:20.745Z,6.69
2018-11-02T03:25:20.689Z,6.69
2018-11-02T03:26:20.707Z,6.7
2018-11-02T03:27:20.684Z,6.71
2018-11-02T03:28:20.954Z,6.69
2018-11-02T03:29:20.635Z,6.69
2018-11-02T03:30:20.676Z,6.74
2018-11-02T03:31:20.648Z,6.73
2018-11-02T03:32:20.363Z,6.73
2018-11-02T03:33:20.601Z,6.79
2018-11-02T03:34:20.603Z,6.74
2018-11-02T03:35:20.589Z,6.73
2018-11-02T03:36:20.619Z,6.71
2018-11-02T03:37:20.462Z,6.76
2018-11-02T03:38:20.812Z,6.81
2018-11-02T03:39:20.567Z,6.74
2018-11-02T03:40:20.555Z,6.84
2018-11-02T03:41:20.497Z,6.79
2018-11-02T03:42:20.521Z,6.84
2018-11-02T03:43:20.223Z,6.8
2018-11-02T03:44:20.483Z,6.84
2018-11-02T03:45:20.184Z,6.79
2018-11-02T03:46:20.437Z,6.88
2018-11-02T03:47:20.427Z,6.87
2018-11-02T03:48:20.515Z,6.84
2018-11-02T03:49:20.157Z,6.87
2018-11-02T03:50:20.394Z,6.89
2018-11-02T03:51:20.383Z,6.79
2018-11-02T03:52:20.353Z,6.89
2018-11-02T03:53:20.372Z,6.87
2018-11-02T03:54:20.359Z,6.89
2018-11-02T03:55:20.380Z,6.87
2018-11-02T03:56:20.164Z,6.97
2018-11-02T03:57:20.296Z,6.88
2018-11-02T03:58:21.068Z,6.89
2018-11-02T03:59:20.285Z,6.92
2018-11-02T04:00:20.184Z,6.91
2018-11-02T04:01:20.258Z,6.85
2018-11-02T04:02:20.237Z,6.99
2018-11-02T04:03:20.235Z,6.95
2018-11-02T04:04:20.246Z,6.98
2018-11-02T04:05:20.230Z,7.02
2018-11-02T04:06:20.208Z,6.98
2018-11-02T04:07:20.201Z,6.99
2018-11-02T04:08:20.741Z,6.99
2018-11-02T04:09:20.035Z,7.07
2018-11-02T04:10:20.148Z,7.06
2018-11-02T04:11:20.158Z,7.07
2018-11-02T04:12:20.117Z,7.07
2018-11-02T04:13:20.129Z,7.06
2018-11-02T04:14:20.175Z,7.09
2018-11-02T04:15:20.099Z,7.07
2018-11-02T04:16:20.064Z,7.09
2018-11-02T04:17:20.087Z,7.09
2018-11-02T04:18:20.003Z,7.07
2018-11-02T04:19:19.794Z,7.09
2018-11-02T04:20:20.032Z,7.17
2018-11-02T04:21:20.032Z,7.12
2018-11-02T04:22:19.995Z,7.09
2018-11-02T04:23:19.471Z,7.09
2018-11-02T04:24:19.966Z,7.12
2018-11-02T04:25:20.070Z,7.06
2018-11-02T04:26:19.965Z,7.06
2018-11-02T04:27:19.695Z,7.12
2018-11-02T04:28:19.423Z,7.2
2018-11-02T04:29:19.932Z,7.12
2018-11-02T04:30:19.630Z,7.12
2018-11-02T04:31:19.900Z,7.1
2018-11-02T04:32:19.920Z,7.1
2018-11-02T04:33:19.889Z,7.1
2018-11-02T04:34:19.870Z,7.2
2018-11-02T04:35:19.906Z,7.17
2018-11-02T04:36:19.818Z,7.17
2018-11-02T04:37:19.826Z,7.13
2018-11-02T04:38:19.818Z,7.23
2018-11-02T04:39:20.140Z,7.21
2018-11-02T04:40:19.803Z,7.17
2018-11-02T04:41:19.790Z,7.3
2018-11-02T04:42:19.556Z,7.15
2018-11-02T04:43:19.732Z,7.17
2018-11-02T04:44:19.760Z,7.15
2018-11-02T04:45:19.463Z,7.15
2018-11-02T04:46:19.462Z,7.21
2018-11-02T04:47:19.734Z,7.15
2018-11-02T04:48:19.675Z,7.12
2018-11-02T04:49:20.310Z,7.17
2018-11-02T04:50:19.679Z,7.16
2018-11-02T04:51:19.545Z,7.12
2018-11-02T04:52:19.628Z,7.15
2018-11-02T04:53:19.622Z,7.24
2018-11-02T04:54:19.626Z,7.1
2018-11-02T04:55:19.349Z,7.15
2018-11-02T04:56:19.644Z,7.03
2018-11-02T04:57:19.565Z,7.1
2018-11-02T04:58:19.320Z,6.98
2018-11-02T04:59:19.487Z,7.1
2018-11-02T05:00:19.568Z,7.07
2018-11-02T05:01:19.559Z,7.1
2018-11-02T05:02:19.279Z,7.07
2018-11-02T05:03:19.508Z,7.12
2018-11-02T05:04:19.523Z,7.12
2018-11-02T05:05:19.491Z,7.06
2018-11-02T05:06:19.482Z,7.02
2018-11-02T05:07:19.475Z,6.99
2018-11-02T05:08:19.482Z,6.97
2018-11-02T05:09:19.687Z,7.03
2018-11-02T05:10:19.415Z,7.07
2018-11-02T05:11:19.719Z,7.05
2018-11-02T05:12:19.671Z,6.99
2018-11-02T05:13:19.456Z,6.97
2018-11-02T05:14:19.126Z,6.98
2018-11-02T05:15:19.358Z,6.94
2018-11-02T05:16:19.367Z,7.03
2018-11-02T05:17:19.331Z,7.05
2018-11-02T05:18:19.342Z,6.99
2018-11-02T05:19:19.579Z,7.03
2018-11-02T05:20:19.060Z,6.99
2018-11-02T05:21:19.638Z,7.02
2018-11-02T05:22:19.016Z,6.99
2018-11-02T05:23:19.265Z,7.03
2018-11-02T05:24:19.280Z,6.98
2018-11-02T05:25:19.258Z,7.03
2018-11-02T05:26:19.230Z,6.98
2018-11-02T05:27:19.220Z,6.98
2018-11-02T05:28:19.192Z,6.95
2018-11-02T05:29:19.311Z,6.95
2018-11-02T05:30:19.216Z,6.94
2018-11-02T05:31:18.665Z,6.87
2018-11-02T05:32:18.885Z,6.85
2018-11-02T05:33:18.903Z,6.84
2018-11-02T05:34:18.860Z,6.94
2018-11-02T05:35:19.122Z,7.03
2018-11-02T05:36:18.841Z,6.88
2018-11-02T05:37:19.117Z,6.88
2018-11-02T05:38:19.131Z,6.87
2018-11-02T05:39:18.960Z,6.88
2018-11-02T05:40:19.623Z,6.84
2018-11-02T05:41:19.083Z,6.85
2018-11-02T05:42:19.030Z,6.88
2018-11-02T05:43:18.770Z,6.87
2018-11-02T05:44:18.999Z,6.8
2018-11-02T05:45:19.019Z,6.8
2018-11-02T05:46:18.716Z,6.88
2018-11-02T05:47:19.328Z,6.89
2018-11-02T05:48:18.958Z,6.88
2018-11-02T05:49:18.976Z,6.87
2018-11-02T05:50:19.529Z,6.88
2018-11-02T05:51:18.928Z,6.87
2018-11-02T05:52:18.902Z,6.85
2018-11-02T05:53:18.921Z,6.81
2018-11-02T05:54:19.425Z,6.84
2018-11-02T05:55:18.900Z,6.81
2018-11-02T05:56:18.861Z,6.77
2018-11-02T05:57:18.856Z,6.81
2018-11-02T05:58:18.858Z,6.71
2018-11-02T05:59:18.573Z,6.74
2018-11-02T06:00:19.325Z,6.8
2018-11-02T06:01:18.846Z,6.8
2018-11-02T06:02:18.813Z,6.74
2018-11-02T06:03:18.789Z,6.66
2018-11-02T06:04:18.788Z,6.67
2018-11-02T06:05:18.783Z,6.73
2018-11-02T06:06:18.503Z,6.7
2018-11-02T06:07:18.730Z,6.76
2018-11-02T06:08:18.187Z,6.69
2018-11-02T06:09:18.460Z,6.73
2018-11-02T06:10:18.885Z,6.71
2018-11-02T06:11:18.429Z,6.7
2018-11-02T06:12:18.660Z,6.71
2018-11-02T06:13:18.642Z,6.67
2018-11-02T06:14:18.658Z,6.71
2018-11-02T06:15:18.645Z,6.71
2018-11-02T06:16:18.380Z,6.69
2018-11-02T06:17:18.611Z,6.69
2018-11-02T06:18:18.344Z,6.71
2018-11-02T06:19:18.051Z,6.71
2018-11-02T06:20:18.598Z,6.69
2018-11-02T06:21:18.638Z,6.71
2018-11-02T06:22:18.566Z,6.67
2018-11-02T06:23:18.271Z,6.69
2018-11-02T06:24:18.504Z,6.71
2018-11-02T06:25:18.237Z,6.69
2018-11-02T06:26:18.233Z,6.7
2018-11-02T06:27:18.257Z,6.69
2018-11-02T06:28:18.496Z,6.71
2018-11-02T06:29:18.442Z,6.7
2018-11-02T06:30:18.474Z,6.81
2018-11-02T06:31:18.499Z,6.7
2018-11-02T06:32:18.439Z,6.8
2018-11-02T06:33:18.392Z,6.81
2018-11-02T06:34:18.415Z,6.8
2018-11-02T06:35:18.112Z,6.91
2018-11-02T06:36:18.156Z,6.87
2018-11-02T06:37:18.366Z,6.87
2018-11-02T06:38:18.363Z,6.87
2018-11-02T06:39:18.101Z,6.94
2018-11-02T06:40:18.339Z,6.98
2018-11-02T06:41:18.333Z,6.97
2018-11-02T06:42:18.305Z,7.1
2018-11-02T06:43:18.285Z,7.03
2018-11-02T06:44:18.032Z,7.09
2018-11-02T06:45:18.211Z,7.07
2018-11-02T06:46:18.259Z,7.05
2018-11-02T06:47:18.240Z,7.13
2018-11-02T06:48:18.244Z,7.12
2018-11-02T06:49:17.989Z,7.21
2018-11-02T06:50:17.975Z,7.17
2018-11-02T06:51:18.179Z,7.16
2018-11-02T06:52:18.481Z,7.27
2018-11-02T06:53:18.158Z,7.23
2018-11-02T06:54:17.907Z,7.24
2018-11-02T06:55:18.145Z,7.35
2018-11-02T06:56:17.855Z,7.28
2018-11-02T06:57:18.162Z,7.43
2018-11-02T06:58:18.121Z,7.48
2018-11-02T06:59:18.559Z,7.46
2018-11-02T07:00:18.350Z,7.63
2018-11-02T07:01:17.798Z,7.57
2018-11-02T07:02:18.512Z,7.63
2018-11-02T07:03:18.054Z,7.74
2018-11-02T07:04:18.049Z,7.75
2018-11-02T07:05:17.757Z,7.83
2018-11-02T07:06:18.030Z,7.97
2018-11-02T07:07:18.520Z,7.98
2018-11-02T07:08:17.902Z,8.02
2018-11-02T07:09:17.969Z,8.19
2018-11-02T07:10:17.981Z,8.18
2018-11-02T07:11:17.965Z,8.26
2018-11-02T07:12:17.439Z,8.38
2018-11-02T07:13:17.930Z,8.48
2018-11-02T07:14:17.925Z,8.47
2018-11-02T07:15:17.649Z,8.48
2018-11-02T07:16:17.946Z,8.59
2018-11-02T07:17:17.909Z,8.61
2018-11-02T07:18:17.868Z,8.73
2018-11-02T07:19:17.876Z,8.66
2018-11-02T07:20:17.878Z,8.68
2018-11-02T07:21:17.579Z,8.84
2018-11-02T07:22:17.604Z,8.86
2018-11-02T07:23:17.564Z,8.87
2018-11-02T07:24:17.578Z,8.98
2018-11-02T07:25:17.818Z,8.87
2018-11-02T07:26:17.817Z,9.01
2018-11-02T07:27:17.538Z,9.05
2018-11-02T07:28:17.540Z,9.1
2018-11-02T07:29:17.766Z,9.13
2018-11-02T07:30:17.790Z,9.28
2018-11-02T07:31:17.751Z,9.21
2018-11-02T07:32:17.781Z,9.26
2018-11-02T07:33:18.356Z,9.32
2018-11-02T07:34:17.883Z,9.35
2018-11-02T07:35:17.740Z,9.32
2018-11-02T07:36:17.682Z,9.31
2018-11-02T07:37:17.710Z,9.38
2018-11-02T07:38:17.715Z,9.43
2018-11-02T07:39:17.680Z,9.47
2018-11-02T07:40:17.383Z,9.4
2018-11-02T07:41:17.729Z,9.42
2018-11-02T07:42:17.756Z,9.4
2018-11-02T07:43:17.717Z,9.53
2018-11-02T07:44:17.773Z,9.48
2018-11-02T07:45:17.628Z,9.46
2018-11-02T07:46:17.585Z,9.48
2018-11-02T07:47:17.727Z,9.46
2018-11-02T07:48:17.621Z,9.48
2018-11-02T07:49:17.656Z,9.58
2018-11-02T07:50:17.672Z,9.57
2018-11-02T07:51:17.284Z,9.6
2018-11-02T07:52:17.521Z,9.65
2018-11-02T07:53:17.289Z,9.61
2018-11-02T07:54:17.771Z,9.64
2018-11-02T07:55:17.541Z,9.66
2018-11-02T07:56:16.967Z,9.64
2018-11-02T07:57:17.508Z,9.72
2018-11-02T07:58:17.457Z,9.76
2018-11-02T07:59:17.470Z,9.68
2018-11-02T08:00:17.448Z,9.78
2018-11-02T08:01:17.472Z,9.79
2018-11-02T08:02:17.452Z,9.89
2018-11-02T08:03:17.209Z,9.9
2018-11-02T08:04:18.003Z,10.01
2018-11-02T08:05:17.395Z,9.96
2018-11-02T08:06:17.425Z,9.93
2018-11-02T08:07:17.390Z,10.08
2018-11-02T08:08:17.388Z,10.11
2018-11-02T08:09:17.348Z,10.12
2018-11-02T08:10:17.398Z,10.15
2018-11-02T08:11:17.554Z,10.22
2018-11-02T08:12:17.315Z,10.25
2018-11-02T08:13:17.337Z,10.26
2018-11-02T08:14:17.507Z,10.34
2018-11-02T08:15:16.793Z,10.4
2018-11-02T08:16:17.277Z,10.45
2018-11-02T08:17:17.300Z,10.47
2018-11-02T08:18:17.282Z,10.56
2018-11-02T08:19:16.754Z,10.64
2018-11-02T08:20:16.731Z,10.63
2018-11-02T08:21:17.228Z,10.73
2018-11-02T08:22:16.986Z,10.74
2018-11-02T08:23:17.227Z,10.91
2018-11-02T08:24:17.234Z,10.86
2018-11-02T08:25:17.217Z,10.96
2018-11-02T08:26:16.934Z,11.03
2018-11-02T08:27:17.199Z,11.07
2018-11-02T08:28:16.907Z,11.1
2018-11-02T08:29:17.192Z,11.11
2018-11-02T08:30:17.143Z,11.29
2018-11-02T08:31:17.155Z,11.35
2018-11-02T08:32:17.629Z,11.29
2018-11-02T08:33:17.145Z,11.32
2018-11-02T08:34:17.149Z,11.27
2018-11-02T08:35:16.861Z,11.4
2018-11-02T08:36:16.845Z,11.37
2018-11-02T08:37:17.108Z,11.39
2018-11-02T08:38:17.071Z,11.52
2018-11-02T08:39:17.074Z,11.55
2018-11-02T08:40:16.798Z,11.73
2018-11-02T08:41:17.073Z,11.78
2018-11-02T08:42:17.035Z,11.76
2018-11-02T08:43:16.798Z,11.9
2018-11-02T08:44:17.014Z,11.91
2018-11-02T08:45:17.035Z,12.02
2018-11-02T08:46:16.794Z,12.14
2018-11-02T08:47:16.754Z,12.19
2018-11-02T08:48:16.984Z,12.37
2018-11-02T08:49:16.749Z,12.49
2018-11-02T08:50:16.733Z,12.68
2018-11-02T08:51:16.987Z,12.72
2018-11-02T08:52:17.168Z,12.9
2018-11-02T08:53:16.685Z,13
2018-11-02T08:54:16.961Z,13.22
2018-11-02T08:55:16.953Z,13.26
2018-11-02T08:56:16.949Z,13.46
2018-11-02T08:57:16.907Z,13.41
2018-11-02T08:58:17.428Z,13.52
2018-11-02T08:59:17.367Z,13.6
2018-11-02T09:00:17.198Z,13.66
2018-11-02T09:01:16.625Z,13.69
2018-11-02T09:02:16.897Z,13.78
2018-11-02T09:03:16.884Z,13.85
2018-11-02T09:04:16.856Z,13.84
2018-11-02T09:05:17.456Z,13.85
2018-11-02T09:06:16.868Z,13.89
2018-11-02T09:07:16.849Z,13.89
2018-11-02T09:08:16.824Z,13.88
2018-11-02T09:09:16.821Z,14.03
2018-11-02T09:10:16.581Z,14.02
2018-11-02T09:11:16.821Z,14.07
2018-11-02T09:12:16.780Z,14.18
2018-11-02T09:13:16.793Z,14.1
2018-11-02T09:14:16.813Z,14.17
2018-11-02T09:15:16.783Z,14.22
2018-11-02T09:16:16.798Z,14.27
2018-11-02T09:17:16.807Z,14.25
2018-11-02T09:18:16.788Z,14.25
2018-11-02T09:19:16.642Z,14.25
2018-11-02T09:20:16.809Z,14.37
2018-11-02T09:21:16.736Z,14.45
2018-11-02T09:22:16.731Z,14.52
2018-11-02T09:23:16.775Z,14.55
2018-11-02T09:24:16.489Z,14.51
2018-11-02T09:25:16.738Z,14.6
2018-11-02T09:26:16.457Z,14.61
2018-11-02T09:27:16.737Z,14.7
2018-11-02T09:28:16.924Z,14.72
2018-11-02T09:29:16.682Z,14.75
2018-11-02T09:30:16.704Z,14.86
2018-11-02T09:31:16.702Z,14.88
2018-11-02T09:32:16.704Z,14.96
2018-11-02T09:33:16.666Z,15.03
2018-11-02T09:34:16.438Z,15.16
2018-11-02T09:35:16.688Z,15.31
2018-11-02T09:36:16.688Z,15.36
2018-11-02T09:37:16.396Z,15.56
2018-11-02T09:38:16.655Z,15.5
2018-11-02T09:39:16.649Z,15.67
2018-11-02T09:40:16.780Z,15.76
2018-11-02T09:41:16.668Z,15.84
2018-11-02T09:42:16.623Z,15.89
2018-11-02T09:43:17.163Z,15.93
2018-11-02T09:44:16.609Z,16.05
2018-11-02T09:45:16.648Z,16.11
2018-11-02T09:46:16.630Z,16.31
2018-11-02T09:47:16.676Z,16.35
2018-11-02T09:48:16.607Z,16.41
2018-11-02T09:49:16.611Z,16.63
2018-11-02T09:50:16.588Z,16.58
2018-11-02T09:51:16.763Z,16.66
2018-11-02T09:52:16.881Z,16.75
2018-11-02T09:53:17.169Z,16.75
2018-11-02T09:54:16.576Z,16.83
2018-11-02T09:55:16.297Z,16.86
2018-11-02T09:56:16.309Z,16.94
2018-11-02T09:57:16.304Z,16.97
2018-11-02T09:58:16.540Z,17
2018-11-02T09:59:16.555Z,16.97
2018-11-02T10:00:16.530Z,17.07
2018-11-02T10:01:16.568Z,17.14
2018-11-02T10:02:17.007Z,17.08
2018-11-02T10:03:16.456Z,17.08
2018-11-02T10:04:16.514Z,17.18
2018-11-02T10:05:16.562Z,17.14
2018-11-02T10:06:16.503Z,17.15
2018-11-02T10:07:16.524Z,17.11
2018-11-02T10:08:16.571Z,17.08
2018-11-02T10:09:16.907Z,16.98
2018-11-02T10:10:16.493Z,16.97
2018-11-02T10:11:16.224Z,16.98
2018-11-02T10:12:16.517Z,16.93
2018-11-02T10:13:16.802Z,16.96
2018-11-02T10:14:16.469Z,16.97
2018-11-02T10:15:16.479Z,16.94
2018-11-02T10:16:16.442Z,17
2018-11-02T10:17:16.471Z,16.88
2018-11-02T10:18:16.447Z,16.91
2018-11-02T10:19:16.449Z,16.88
2018-11-02T10:20:16.469Z,16.91
2018-11-02T10:21:16.422Z,16.83
2018-11-02T10:22:16.458Z,16.91
2018-11-02T10:23:16.932Z,16.85
2018-11-02T10:24:16.451Z,16.81
2018-11-02T10:25:16.410Z,16.86
2018-11-02T10:26:15.884Z,16.79
2018-11-02T10:27:16.426Z,16.79
2018-11-02T10:28:16.407Z,16.86
2018-11-02T10:29:16.414Z,16.76
2018-11-02T10:30:16.399Z,16.73
2018-11-02T10:31:16.404Z,16.71
2018-11-02T10:32:16.393Z,16.78
2018-11-02T10:33:16.909Z,16.71
2018-11-02T10:34:16.408Z,16.63
2018-11-02T10:35:16.591Z,16.53
2018-11-02T10:36:16.104Z,16.57
2018-11-02T10:37:16.372Z,16.57
2018-11-02T10:38:16.370Z,16.49
2018-11-02T10:39:16.515Z,16.52
2018-11-02T10:40:16.330Z,16.6
2018-11-02T10:41:16.383Z,16.53
2018-11-02T10:42:16.353Z,16.53
2018-11-02T10:43:16.785Z,16.64
2018-11-02T10:44:16.550Z,16.68
2018-11-02T10:45:16.387Z,16.66
2018-11-02T10:46:16.071Z,16.67
2018-11-02T10:47:16.311Z,16.78
2018-11-02T10:48:16.317Z,16.75
2018-11-02T10:49:16.503Z,16.83
2018-11-02T10:50:16.306Z,16.88
2018-11-02T10:51:16.534Z,16.91
2018-11-02T10:52:16.283Z,16.93
2018-11-02T10:53:16.783Z,16.93
2018-11-02T10:54:16.320Z,16.91
2018-11-02T10:55:16.308Z,16.93
2018-11-02T10:56:16.258Z,16.97
2018-11-02T10:57:16.291Z,16.94
2018-11-02T10:58:16.272Z,16.82
2018-11-02T10:59:16.011Z,16.88
2018-11-02T11:00:16.249Z,16.89
2018-11-02T11:01:16.441Z,16.85
2018-11-02T11:02:16.266Z,16.88
2018-11-02T11:03:16.678Z,16.91
2018-11-02T11:04:16.245Z,16.94
2018-11-02T11:05:16.391Z,16.86
2018-11-02T11:06:16.241Z,16.91
2018-11-02T11:07:16.222Z,16.93
2018-11-02T11:08:16.231Z,16.97
2018-11-02T11:09:15.957Z,16.98
2018-11-02T11:10:15.945Z,17.04
2018-11-02T11:11:16.198Z,17.06
2018-11-02T11:12:16.751Z,17.08
2018-11-02T11:13:18.325Z,17.06
2018-11-02T11:14:16.201Z,17.03
2018-11-02T11:15:16.182Z,17
2018-11-02T11:16:16.156Z,16.98
2018-11-02T11:17:15.890Z,17
2018-11-02T11:18:16.174Z,17
2018-11-02T11:19:16.166Z,16.97
2018-11-02T11:20:16.172Z,17.11
2018-11-02T11:21:16.372Z,17.08
2018-11-02T11:22:16.152Z,17.07
2018-11-02T11:23:16.165Z,17.08
2018-11-02T11:24:16.177Z,17.08
2018-11-02T11:25:15.857Z,17.11
2018-11-02T11:26:16.162Z,17.15
2018-11-02T11:27:15.860Z,17.12
2018-11-02T11:28:16.132Z,17.16
2018-11-02T11:29:16.360Z,17.07
2018-11-02T11:30:15.838Z,17.04
2018-11-02T11:31:16.104Z,17.11
2018-11-02T11:32:15.878Z,17.03
2018-11-02T11:33:16.495Z,17.01
2018-11-02T11:34:16.082Z,17
2018-11-02T11:35:15.814Z,16.93
2018-11-02T11:36:16.109Z,16.91
2018-11-02T11:37:16.164Z,16.94
2018-11-02T11:38:15.816Z,16.94
2018-11-02T11:39:16.080Z,16.93
2018-11-02T11:40:16.070Z,16.97
2018-11-02T11:41:15.782Z,17
2018-11-02T11:42:16.230Z,17
2018-11-02T11:43:16.372Z,17.01
2018-11-02T11:44:16.064Z,16.96
2018-11-02T11:45:15.762Z,16.91
2018-11-02T11:46:15.770Z,16.91
2018-11-02T11:47:15.760Z,16.96
2018-11-02T11:48:16.043Z,16.96
2018-11-02T11:49:16.026Z,16.89
2018-11-02T11:50:16.032Z,16.79
2018-11-02T11:51:16.013Z,16.81
2018-11-02T11:52:16.215Z,16.83
2018-11-02T11:53:16.373Z,16.71
2018-11-02T11:54:16.062Z,16.76
2018-11-02T11:55:15.993Z,16.68
2018-11-02T11:56:15.966Z,16.63
2018-11-02T11:57:15.723Z,16.56
2018-11-02T11:58:15.953Z,16.6
2018-11-02T11:59:15.983Z,16.57
2018-11-02T12:00:15.944Z,16.53
2018-11-02T12:01:15.990Z,16.41
2018-11-02T12:02:16.126Z,16.46
2018-11-02T12:03:15.687Z,16.39
2018-11-02T12:04:16.106Z,16.33
2018-11-02T12:05:15.692Z,16.24
2018-11-02T12:06:15.398Z,16.23
2018-11-02T12:07:15.397Z,16.21
2018-11-02T12:08:15.639Z,16.25
2018-11-02T12:09:16.134Z,16.24
2018-11-02T12:10:16.192Z,16.14
2018-11-02T12:11:15.659Z,16.05
2018-11-02T12:12:15.810Z,16.14
2018-11-02T12:13:16.258Z,16.08
2018-11-02T12:14:15.868Z,16.09
2018-11-02T12:15:15.635Z,16.05
2018-11-02T12:16:15.869Z,16.02
2018-11-02T12:17:15.889Z,16.05
2018-11-02T12:18:15.877Z,16.07
2018-11-02T12:19:15.865Z,15.92
2018-11-02T12:20:15.835Z,15.9
2018-11-02T12:21:15.569Z,15.92
2018-11-02T12:22:15.863Z,15.93
2018-11-02T12:23:15.571Z,15.82
2018-11-02T12:24:15.877Z,15.86
2018-11-02T12:25:15.555Z,15.82
2018-11-02T12:26:15.300Z,15.76
2018-11-02T12:27:15.557Z,15.76
2018-11-02T12:28:16.099Z,15.72
2018-11-02T12:29:15.288Z,15.65
2018-11-02T12:30:15.517Z,15.62
2018-11-02T12:31:15.792Z,15.5
2018-11-02T12:32:15.522Z,15.57
2018-11-02T12:33:16.160Z,15.54
2018-11-02T12:34:15.785Z,15.56
2018-11-02T12:35:15.771Z,15.56
2018-11-02T12:36:15.741Z,15.49
2018-11-02T12:37:16.269Z,15.43
2018-11-02T12:38:15.767Z,15.41
2018-11-02T12:39:15.746Z,15.47
2018-11-02T12:40:15.759Z,15.34
2018-11-02T12:41:15.720Z,15.47
2018-11-02T12:42:15.779Z,15.38
2018-11-02T12:43:16.599Z,15.38
2018-11-02T12:44:15.723Z,15.36
2018-11-02T12:45:15.168Z,15.36
2018-11-02T12:46:15.721Z,15.39
2018-11-02T12:47:15.686Z,15.36
2018-11-02T12:48:15.593Z,15.32
2018-11-02T12:49:17.147Z,15.36
2018-11-02T12:50:15.699Z,15.36
2018-11-02T12:51:15.665Z,15.27
2018-11-02T12:52:15.672Z,15.25
2018-11-02T12:53:15.750Z,15.27
2018-11-02T12:54:15.664Z,15.25
2018-11-02T12:55:15.390Z,15.17
2018-11-02T12:56:15.667Z,15.19
2018-11-02T12:57:15.679Z,15.17
2018-11-02T12:58:15.634Z,15.16
2018-11-02T12:59:15.601Z,15.21
2018-11-02T13:00:15.627Z,15.16
2018-11-02T13:01:15.588Z,15.16
2018-11-02T13:02:15.609Z,14.99
2018-11-02T13:03:15.063Z,15.01
2018-11-02T13:04:15.343Z,15.06
2018-11-02T13:05:15.303Z,15.02
2018-11-02T13:06:15.303Z,15.02
2018-11-02T13:07:15.639Z,14.98
2018-11-02T13:08:15.571Z,14.98
2018-11-02T13:09:15.803Z,14.88
2018-11-02T13:10:15.282Z,14.95
2018-11-02T13:11:15.557Z,14.94